Time;durP1;ratioP1;P1;durP2;ratioP2;P2;SDS_P1;SDS_P2;PMS_P1;PMS_P2;Temp;Humidity;BMP_temperature;BMP_pressure;BME280_temperature;BME280_humidity;BME280_pressure;Samples;Min_cycle;Max_cycle;Signal;HPM_P1;HPM_P2
2022/07/11 00:01:37;;;;;;;;;;;;;;;16.98;69.61;102346.22;5069824;28;20570;-56
2022/07/11 00:04:02;;;;;;;;;;;;;;;16.95;69.83;102349.22;5060183;28;19982;-57
2022/07/11 00:06:28;;;;;;;;;;;;;;;16.95;69.88;102346.53;5067994;28;20007;-57
2022/07/11 00:08:53;;;;;;;;;;;;;;;16.90;72.67;102348.88;5063598;28;20550;-56
2022/07/11 00:11:18;;;;;;;;;;;;;;;16.84;70.28;102349.53;5045080;28;19928;-57
2022/07/11 00:13:43;;;;;;;;;;;;;;;16.83;70.45;102345.19;5053920;28;20355;-57
2022/07/11 00:16:08;;;;;;;;;;;;;;;16.81;70.35;102340.00;5066586;28;20023;-57
2022/07/11 00:18:34;;;;;;;;;;;;;;;16.81;70.40;102340.00;5066861;28;19946;-56
2022/07/11 00:20:59;;;;;;;;;;;;;;;16.79;70.60;102344.69;5045018;28;19924;-57
2022/07/11 00:23:24;;;;;;;;;;;;;;;16.78;70.76;102337.66;5061019;28;20015;-57
2022/07/11 00:25:49;;;;;;;;;;;;;;;16.77;70.64;102331.44;5048151;28;19920;-57
2022/07/11 00:28:14;;;;;;;;;;;;;;;16.77;70.78;102330.59;5074876;28;19985;-57
2022/07/11 00:30:40;;;;;;;;;;;;;;;16.78;70.45;102326.94;5056670;28;19937;-58
2022/07/11 00:33:05;;;;;;;;;;;;;;;16.76;70.51;102324.41;5059867;28;19970;-59
2022/07/11 00:35:30;;;;;;;;;;;;;;;16.75;70.65;102322.75;5061822;28;19924;-57
2022/07/11 00:37:55;;;;;;;;;;;;;;;16.75;71.07;102322.75;5053519;28;19924;-57
2022/07/11 00:40:20;;;;;;;;;;;;;;;16.70;71.13;102322.41;5060243;28;19970;-58
2022/07/11 00:42:45;;;;;;;;;;;;;;;16.63;71.32;102324.91;5061297;28;19947;-56
2022/07/11 00:45:11;;;;;;;;;;;;;;;16.57;71.46;102324.75;5062840;28;19924;-57
2022/07/11 00:47:36;;;;;;;;;;;;;;;16.51;71.78;102320.88;5069339;28;19938;-58
2022/07/11 00:50:02;;;;;;;;;;;;;;;16.47;71.99;102331.06;5055915;28;19967;-58
2022/07/11 00:52:28;;;;;;;;;;;;;;;16.45;71.91;102333.09;5061295;28;19982;-57
2022/07/11 00:54:53;;;;;;;;;;;;;;;16.39;72.08;102328.38;5058779;28;20550;-58
2022/07/11 00:57:19;;;;;;;;;;;;;;;16.35;71.98;102327.88;5065044;28;20027;-57
2022/07/11 00:59:44;;;;;;;;;;;;;;;16.32;72.35;102324.69;5061015;28;19925;-59
2022/07/11 01:02:09;;;;;;;;;;;;;;;16.30;72.31;102329.34;5067283;28;20762;-57
2022/07/11 01:04:35;;;;;;;;;;;;;;;16.31;72.17;102317.66;5058339;28;19924;-57
2022/07/11 01:07:00;;;;;;;;;;;;;;;16.29;72.39;102320.50;5055454;28;20370;-57
2022/07/11 01:09:25;;;;;;;;;;;;;;;16.27;72.25;102319.81;5072445;28;19924;-57
2022/07/11 01:11:51;;;;;;;;;;;;;;;16.25;72.08;102322.66;5059830;28;19970;-58
2022/07/11 01:14:16;;;;;;;;;;;;;;;16.24;72.44;102322.81;5057753;28;19959;-57
2022/07/11 01:16:41;;;;;;;;;;;;;;;16.23;72.63;102329.19;5061953;28;19928;-57
2022/07/11 01:19:07;;;;;;;;;;;;;;;16.20;72.63;102314.28;5063068;28;19924;-58
2022/07/11 01:21:35;;;;;;;;;;;;;;;16.18;72.70;102316.28;5042532;28;19946;-56
2022/07/11 01:24:01;;;;;;;;;;;;;;;16.13;72.93;102313.25;5049454;28;19924;-57
2022/07/11 01:26:27;;;;;;;;;;;;;;;16.09;73.05;102317.25;5066165;28;20742;-58
2022/07/11 01:28:53;;;;;;;;;;;;;;;16.05;73.19;102322.09;5060091;28;19978;-58
2022/07/11 01:31:19;;;;;;;;;;;;;;;16.04;73.39;102316.91;5060782;28;19924;-57
2022/07/11 01:33:44;;;;;;;;;;;;;;;16.02;73.48;102316.25;5056993;28;19932;-57
2022/07/11 01:36:09;;;;;;;;;;;;;;;15.98;73.58;102313.03;5057059;28;19935;-58
2022/07/11 01:38:35;;;;;;;;;;;;;;;15.96;73.45;102313.22;5061019;28;20405;-57
2022/07/11 01:41:00;;;;;;;;;;;;;;;15.96;73.34;102312.34;5058299;28;20005;-57
2022/07/11 01:43:26;;;;;;;;;;;;;;;15.96;73.31;102307.84;5056428;28;19928;-58
2022/07/11 01:45:52;;;;;;;;;;;;;;;15.94;73.74;102304.50;5063113;28;20481;-57
2022/07/11 01:48:17;;;;;;;;;;;;;;;15.92;73.38;102316.31;5062402;28;19948;-58
2022/07/11 01:50:42;;;;;;;;;;;;;;;15.90;73.66;102321.84;5054445;28;19924;-59
2022/07/11 01:53:07;;;;;;;;;;;;;;;15.90;74.03;102321.84;5056393;28;20401;-57
2022/07/11 01:55:33;;;;;;;;;;;;;;;15.87;74.84;102324.81;5059366;28;19929;-59
2022/07/11 01:57:58;;;;;;;;;;;;;;;15.84;73.88;102319.81;5061750;28;19930;-56
2022/07/11 02:00:23;;;;;;;;;;;;;;;15.82;74.38;102329.81;5054011;28;19932;-58
2022/07/11 02:02:48;;;;;;;;;;;;;;;15.74;74.02;102331.47;5061752;28;19934;-57
2022/07/11 02:05:14;;;;;;;;;;;;;;;15.76;74.39;102333.13;5060494;28;19963;-58
2022/07/11 02:10:23;;;;;;;;;;;;;;;15.64;74.58;102333.41;5055677;28;19981;-59
2022/07/11 02:12:48;;;;;;;;;;;;;;;15.58;75.92;102331.34;5057044;28;19951;-57
2022/07/11 02:15:14;;;;;;;;;;;;;;;15.54;75.89;102330.03;5061487;28;19936;-57
2022/07/11 02:17:39;;;;;;;;;;;;;;;15.52;76.89;102321.28;5064281;28;20263;-57
2022/07/11 02:20:04;;;;;;;;;;;;;;;15.45;75.20;102321.13;5056923;28;19935;-59
2022/07/11 02:22:30;;;;;;;;;;;;;;;15.45;75.52;102313.09;5056795;28;20317;-57
2022/07/11 02:24:55;;;;;;;;;;;;;;;15.50;75.32;102318.81;5054735;28;20566;-57
2022/07/11 02:27:21;;;;;;;;;;;;;;;15.55;75.38;102316.47;5062312;28;19924;-57
2022/07/11 02:29:46;;;;;;;;;;;;;;;15.57;75.18;102327.00;5059442;28;19925;-59
2022/07/11 02:32:11;;;;;;;;;;;;;;;15.58;74.93;102323.34;5066028;28;19951;-58
2022/07/11 02:34:37;;;;;;;;;;;;;;;15.60;75.29;102318.69;5065943;28;19924;-58
2022/07/11 02:37:02;;;;;;;;;;;;;;;15.60;75.05;102313.34;5073179;28;19927;-56
2022/07/11 02:39:27;;;;;;;;;;;;;;;15.57;75.00;102317.16;5082171;28;20290;-57
2022/07/11 02:41:52;;;;;;;;;;;;;;;15.57;75.86;102316.31;5063633;28;19935;-58
2022/07/11 02:44:19;;;;;;;;;;;;;;;15.52;75.41;102321.28;5064731;28;20011;-58
2022/07/11 02:46:44;;;;;;;;;;;;;;;15.48;75.77;102314.63;5070085;28;19932;-58
2022/07/11 02:49:09;;;;;;;;;;;;;;;15.48;75.69;102319.97;5049290;28;19924;-59
2022/07/11 02:51:34;;;;;;;;;;;;;;;15.45;75.84;102321.94;5061183;28;19936;-57
2022/07/11 02:53:59;;;;;;;;;;;;;;;15.41;75.89;102325.94;5063695;28;20457;-59
2022/07/11 02:56:24;;;;;;;;;;;;;;;15.42;75.91;102321.41;5065623;28;19935;-58
2022/07/11 02:58:51;;;;;;;;;;;;;;;15.41;76.13;102315.25;5057772;28;19949;-57
2022/07/11 03:01:16;;;;;;;;;;;;;;;15.43;75.88;102315.91;5055243;28;20309;-57
2022/07/11 03:03:41;;;;;;;;;;;;;;;15.43;76.08;102318.59;5061246;28;19939;-57
2022/07/11 03:06:06;;;;;;;;;;;;;;;15.40;76.44;102318.88;5077884;28;19924;-56
2022/07/11 03:08:31;;;;;;;;;;;;;;;15.41;76.31;102317.91;5063952;28;20501;-58
2022/07/11 03:10:57;;;;;;;;;;;;;;;15.45;76.31;102315.75;5055514;28;19925;-57
2022/07/11 03:13:22;;;;;;;;;;;;;;;15.49;76.46;102321.63;5059004;28;19931;-58
2022/07/11 03:15:47;;;;;;;;;;;;;;;15.45;76.47;102324.59;5068875;28;20368;-59
2022/07/11 03:18:12;;;;;;;;;;;;;;;15.44;76.61;102322.94;5062180;28;19928;-60
2022/07/11 03:20:37;;;;;;;;;;;;;;;15.47;77.02;102324.44;5056709;28;19925;-58
2022/07/11 03:23:02;;;;;;;;;;;;;;;15.46;77.47;102334.28;5059716;28;20392;-58
2022/07/11 03:25:28;;;;;;;;;;;;;;;15.46;77.49;102323.59;5059343;28;19924;-58
2022/07/11 03:27:53;;;;;;;;;;;;;;;15.44;76.98;102330.94;5062512;28;20688;-57
2022/07/11 03:30:18;;;;;;;;;;;;;;;15.47;77.40;102327.13;5063076;28;19928;-57
2022/07/11 03:32:44;;;;;;;;;;;;;;;15.46;77.45;102334.28;5056383;28;19931;-58
2022/07/11 03:37:53;;;;;;;;;;;;;;;15.47;77.72;102329.81;5065532;28;19947;-59
2022/07/11 03:40:18;;;;;;;;;;;;;;;15.46;78.14;102333.47;5042008;28;19928;-57
2022/07/11 03:42:44;;;;;;;;;;;;;;;15.42;78.37;102324.94;5065818;28;20001;-59
2022/07/11 03:45:10;;;;;;;;;;;;;;;15.43;77.76;102323.94;5059156;28;20011;-57
2022/07/11 03:47:36;;;;;;;;;;;;;;;15.44;78.27;102335.44;5059625;28;19925;-57
2022/07/11 03:50:01;;;;;;;;;;;;;;;15.43;78.82;102329.28;5058970;28;19924;-57
2022/07/11 03:52:27;;;;;;;;;;;;;;;15.40;77.92;102331.44;5053074;28;20045;-58
2022/07/11 03:54:52;;;;;;;;;;;;;;;15.40;78.70;102340.28;5065149;28;19928;-57
2022/07/11 03:57:17;;;;;;;;;;;;;;;15.40;77.85;102332.25;5052109;28;19932;-56
2022/07/11 03:59:42;;;;;;;;;;;;;;;15.44;78.05;102327.44;5069707;28;19957;-58
2022/07/11 04:02:07;;;;;;;;;;;;;;;15.44;77.97;102325.59;5057200;28;20748;-58
2022/07/11 04:04:33;;;;;;;;;;;;;;;15.46;78.12;102325.44;5050783;28;19968;-58
2022/07/11 04:06:58;;;;;;;;;;;;;;;15.46;78.83;102333.47;5064482;28;19935;-58
2022/07/11 04:09:24;;;;;;;;;;;;;;;15.45;78.79;102329.94;5078874;28;19931;-57
2022/07/11 04:11:50;;;;;;;;;;;;;;;15.46;79.09;102334.28;5041696;28;20375;-57
2022/07/11 04:14:15;;;;;;;;;;;;;;;15.43;78.78;102329.28;5070804;28;20007;-57
2022/07/11 04:16:40;;;;;;;;;;;;;;;15.44;79.10;102328.28;5059427;28;19931;-58
2022/07/11 04:19:05;;;;;;;;;;;;;;;15.44;78.61;102330.09;5055011;28;19951;-56
2022/07/11 04:21:30;;;;;;;;;;;;;;;15.43;79.24;102329.28;5057732;28;19924;-57
2022/07/11 04:23:56;;;;;;;;;;;;;;;15.44;79.62;102324.75;5056954;28;19942;-56
2022/07/11 04:26:21;;;;;;;;;;;;;;;15.48;78.91;102322.63;5062525;28;19928;-57
2022/07/11 04:28:46;;;;;;;;;;;;;;;15.49;79.02;102326.97;5047060;28;19924;-57
2022/07/11 04:31:11;;;;;;;;;;;;;;;15.50;78.67;102328.66;5058358;28;19943;-57
2022/07/11 04:33:36;;;;;;;;;;;;;;;15.52;78.95;102326.66;5057231;28;19974;-57
2022/07/11 04:36:02;;;;;;;;;;;;;;;15.55;78.99;102331.69;5044397;28;20039;-58
2022/07/11 04:38:27;;;;;;;;;;;;;;;15.56;79.11;102333.38;5055940;28;19931;-57
2022/07/11 04:40:52;;;;;;;;;;;;;;;15.58;79.15;102331.34;5040734;28;19935;-58
2022/07/11 04:43:17;;;;;;;;;;;;;;;15.56;81.74;102334.22;5055403;28;19935;-58
2022/07/11 04:45:43;;;;;;;;;;;;;;;15.52;80.30;102338.19;5059021;28;19935;-57
2022/07/11 04:48:08;;;;;;;;;;;;;;;15.53;79.43;102339.88;5060651;28;19928;-58
2022/07/11 04:50:33;;;;;;;;;;;;;;;15.55;79.06;102342.38;5057862;28;20362;-57
2022/07/11 04:52:58;;;;;;;;;;;;;;;15.58;79.39;102342.06;5056126;28;19947;-58
2022/07/11 04:55:24;;;;;;;;;;;;;;;15.59;80.68;102349.06;5061994;28;20404;-57
2022/07/11 04:57:49;;;;;;;;;;;;;;;15.59;79.66;102349.06;5057015;28;20644;-57
2022/07/11 05:00:16;;;;;;;;;;;;;;;15.58;79.23;102347.41;5056959;28;20859;-57
2022/07/11 05:02:41;;;;;;;;;;;;;;;15.61;79.46;102352.44;5051445;28;19924;-59
2022/07/11 05:05:07;;;;;;;;;;;;;;;15.62;79.31;102351.44;5049091;28;19929;-57
2022/07/11 05:07:32;;;;;;;;;;;;;;;15.66;81.47;102360.00;5053444;28;19924;-57
2022/07/11 05:09:57;;;;;;;;;;;;;;;15.66;79.44;102357.31;5059100;28;19924;-57
2022/07/11 05:12:23;;;;;;;;;;;;;;;15.67;80.63;102357.16;5056966;28;20430;-59
2022/07/11 05:14:48;;;;;;;;;;;;;;;15.66;79.75;102360.00;5046240;28;19925;-59
2022/07/11 05:17:13;;;;;;;;;;;;;;;15.67;79.88;102354.50;5051219;28;19924;-59
2022/07/11 05:19:38;;;;;;;;;;;;;;;15.67;79.93;102359.84;5058511;28;20389;-57
2022/07/11 05:22:04;;;;;;;;;;;;;;;15.71;79.78;102358.53;5054827;28;20072;-57
2022/07/11 05:24:29;;;;;;;;;;;;;;;15.74;80.19;102360.88;5048586;28;19982;-57
2022/07/11 05:26:54;;;;;;;;;;;;;;;15.76;80.70;102370.56;5067287;28;20406;-57
2022/07/11 05:29:19;;;;;;;;;;;;;;;15.78;80.12;102368.59;5054491;28;19925;-56
2022/07/11 05:31:50;;;;;;;;;;;;;;;15.81;79.91;102370.94;5048963;28;20003;-59
2022/07/11 05:34:15;;;;;;;;;;;;;;;15.83;80.02;102360.91;5049347;28;19925;-57
2022/07/11 05:36:40;;;;;;;;;;;;;;;15.84;79.64;102367.97;5053156;28;19928;-56
2022/07/11 05:39:05;;;;;;;;;;;;;;;15.86;80.58;102360.59;5050753;28;19928;-58
2022/07/11 05:41:30;;;;;;;;;;;;;;;15.86;80.08;102366.81;5053670;28;19979;-58
2022/07/11 05:43:56;;;;;;;;;;;;;;;15.91;80.42;102371.66;5048152;28;19929;-59
2022/07/11 05:46:21;;;;;;;;;;;;;;;15.95;81.59;102369.53;5053910;28;20327;-57
2022/07/11 05:48:46;;;;;;;;;;;;;;;15.95;79.91;102375.75;5049104;28;19932;-56
2022/07/11 05:51:13;;;;;;;;;;;;;;;15.97;80.96;102379.09;5051083;28;19936;-57
2022/07/11 05:53:38;;;;;;;;;;;;;;;15.95;80.10;102373.06;5047786;28;19924;-59
2022/07/11 05:56:04;;;;;;;;;;;;;;;15.95;80.83;102374.88;5062117;28;20348;-59
2022/07/11 05:58:29;;;;;;;;;;;;;;;15.91;80.98;102374.34;5045727;28;19932;-57
2022/07/11 06:00:58;;;;;;;;;;;;;;;15.92;80.87;102373.38;5050476;28;20432;-57
2022/07/11 06:03:23;;;;;;;;;;;;;;;15.95;80.70;102365.03;5049094;28;19928;-58
2022/07/11 06:05:49;;;;;;;;;;;;;;;15.99;82.47;102382.44;5049556;28;20436;-57
2022/07/11 06:10:58;;;;;;;;;;;;;;;16.00;81.07;102378.75;5053369;28;19986;-57
2022/07/11 06:13:23;;;;;;;;;;;;;;;16.00;81.46;102389.44;5054175;28;19925;-58
2022/07/11 06:15:49;;;;;;;;;;;;;;;16.06;81.72;102387.13;5051826;28;20520;-57
2022/07/11 06:18:14;;;;;;;;;;;;;;;16.02;81.53;102391.16;5052221;28;20016;-57
2022/07/11 06:20:39;;;;;;;;;;;;;;;16.02;81.94;102393.84;5062725;28;20053;-57
2022/07/11 06:23:06;;;;;;;;;;;;;;;16.04;81.54;102389.16;5059935;28;19925;-58
2022/07/11 06:25:31;;;;;;;;;;;;;;;16.06;80.96;102388.00;5058052;28;19947;-57
2022/07/11 06:27:56;;;;;;;;;;;;;;;16.08;81.21;102395.88;5057887;28;19924;-57
2022/07/11 06:30:22;;;;;;;;;;;;;;;16.08;81.36;102383.31;5056787;28;20405;-58
2022/07/11 06:32:47;;;;;;;;;;;;;;;16.11;81.30;102391.03;5055074;28;19924;-59
2022/07/11 06:35:12;;;;;;;;;;;;;;;16.12;81.89;102391.84;5052939;28;19933;-60
2022/07/11 06:37:38;;;;;;;;;;;;;;;16.14;81.24;102395.22;5050927;28;20284;-59
2022/07/11 06:40:09;;;;;;;;;;;;;;;16.13;81.74;102388.16;5057597;28;19968;-60
2022/07/11 06:42:35;;;;;;;;;;;;;;;16.18;81.32;102396.56;5052894;28;20273;-59
2022/07/11 06:45:00;;;;;;;;;;;;;;;16.21;81.36;102395.41;5068014;28;20391;-60
2022/07/11 06:47:25;;;;;;;;;;;;;;;16.22;81.20;102397.94;5052569;28;19986;-59
2022/07/11 06:49:50;;;;;;;;;;;;;;;16.26;81.81;102401.97;5053244;28;20840;-60
2022/07/11 06:52:16;;;;;;;;;;;;;;;16.25;81.97;102392.22;5057473;28;20693;-60
2022/07/11 06:54:41;;;;;;;;;;;;;;;16.29;81.61;102386.56;5057996;28;19943;-61
2022/07/11 06:57:06;;;;;;;;;;;;;;;16.31;81.38;102384.56;5056208;28;19925;-60
2022/07/11 06:59:31;;;;;;;;;;;;;;;16.40;81.91;102388.97;5059681;28;20401;-60
2022/07/11 07:01:58;;;;;;;;;;;;;;;16.36;81.61;102387.59;5058118;28;19931;-59
2022/07/11 07:04:23;;;;;;;;;;;;;;;16.36;81.33;102382.25;5057718;28;19975;-59
2022/07/11 07:06:49;;;;;;;;;;;;;;;16.40;81.05;102383.59;5064495;28;19959;-60
2022/07/11 07:09:14;;;;;;;;;;;;;;;16.44;81.26;102384.97;5054518;28;20019;-60
2022/07/11 07:11:39;;;;;;;;;;;;;;;16.47;82.34;102378.44;5054496;28;19994;-61
2022/07/11 07:14:05;;;;;;;;;;;;;;;16.52;81.35;102381.44;5062778;28;19975;-60
2022/07/11 07:16:30;;;;;;;;;;;;;;;16.56;81.62;102387.31;5052619;28;20367;-60
2022/07/11 07:18:55;;;;;;;;;;;;;;;16.55;81.20;102386.50;5045694;28;19935;-60
2022/07/11 07:21:21;;;;;;;;;;;;;;;16.57;81.87;102386.34;5060003;28;19932;-59
2022/07/11 07:23:46;;;;;;;;;;;;;;;16.60;81.11;102380.63;5058107;28;19920;-60
2022/07/11 07:26:11;;;;;;;;;;;;;;;16.62;81.92;102384.00;5053229;28;20517;-61
2022/07/11 07:28:38;;;;;;;;;;;;;;;16.65;81.44;102375.63;5057799;28;19921;-60
2022/07/11 07:31:04;;;;;;;;;;;;;;;16.71;81.09;102379.47;5058476;28;20023;-62
2022/07/11 07:33:29;;;;;;;;;;;;;;;16.78;80.91;102381.34;5061705;28;20438;-60
2022/07/11 07:35:54;;;;;;;;;;;;;;;16.80;80.32;102374.00;5059566;28;19924;-58
2022/07/11 07:38:19;;;;;;;;;;;;;;;16.87;80.25;102373.34;5057248;28;20019;-59
2022/07/11 07:40:45;;;;;;;;;;;;;;;16.90;80.15;102375.66;5063393;28;19935;-61
2022/07/11 07:43:10;;;;;;;;;;;;;;;16.95;80.21;102373.31;5062979;28;19925;-59
2022/07/11 07:45:35;;;;;;;;;;;;;;;17.02;80.02;102374.34;5058375;28;20028;-60
2022/07/11 07:48:00;;;;;;;;;;;;;;;17.11;80.53;102382.41;5061135;28;20444;-60
2022/07/11 07:50:25;;;;;;;;;;;;;;;17.17;80.00;102384.44;5056036;28;19925;-60
2022/07/11 07:52:51;;;;;;;;;;;;;;;17.24;79.98;102393.47;5052794;28;19928;-62
2022/07/11 07:55:16;;;;;;;;;;;;;;;17.27;79.49;102386.94;5058000;28;19924;-60
2022/07/11 07:57:41;;;;;;;;;;;;;;;17.29;79.35;102383.09;5061987;28;21098;-61
2022/07/11 08:02:50;;;;;;;;;;;;;;;17.38;79.60;102391.97;5070382;28;19931;-60
2022/07/11 08:05:16;;;;;;;;;;;;;;;17.34;79.28;102390.63;5055133;28;20019;-60
2022/07/11 08:07:41;;;;;;;;;;;;;;;17.40;79.29;102397.13;5053260;28;20628;-59
2022/07/11 08:10:07;;;;;;;;;;;;;;;17.42;80.28;102397.81;5060731;28;19938;-59
2022/07/11 08:12:32;;;;;;;;;;;;;;;17.41;79.54;102391.59;5056857;28;19924;-61
2022/07/11 08:14:57;;;;;;;;;;;;;;;17.46;79.39;102393.78;5060709;28;19924;-59
2022/07/11 08:17:22;;;;;;;;;;;;;;;17.45;79.16;102392.09;5072537;28;19948;-61
2022/07/11 08:19:47;;;;;;;;;;;;;;;17.44;79.17;102390.44;5060294;28;19933;-60
2022/07/11 08:22:13;;;;;;;;;;;;;;;17.48;79.72;102397.13;5058644;28;19924;-58
2022/07/11 08:24:38;;;;;;;;;;;;;;;17.49;79.21;102393.44;5063381;28;20413;-62
2022/07/11 08:27:03;;;;;;;;;;;;;;;17.50;79.12;102400.47;5055263;28;19924;-60
2022/07/11 08:29:28;;;;;;;;;;;;;;;17.55;79.15;102387.41;5079290;28;19986;-60
2022/07/11 08:31:55;;;;;;;;;;;;;;;17.57;79.05;102395.28;5058428;28;21292;-59
2022/07/11 08:34:20;;;;;;;;;;;;;;;17.60;79.44;102395.78;5059523;28;20057;-57
2022/07/11 08:36:46;;;;;;;;;;;;;;;17.64;78.90;102401.63;5048073;28;19925;-58
2022/07/11 08:39:11;;;;;;;;;;;;;;;17.67;78.86;102403.16;5055347;28;19924;-59
2022/07/11 08:41:41;;;;;;;;;;;;;;;17.67;78.58;102400.47;5059630;28;20362;-59
2022/07/11 08:44:07;;;;;;;;;;;;;;;17.69;78.41;102403.81;5053073;28;19925;-60
2022/07/11 08:46:33;;;;;;;;;;;;;;;17.70;78.40;102403.63;5057680;28;19928;-60
2022/07/11 08:48:59;;;;;;;;;;;;;;;17.70;78.36;102402.78;5060760;28;19982;-58
2022/07/11 08:51:25;;;;;;;;;;;;;;;17.71;78.60;102401.81;5052602;28;19993;-58
2022/07/11 08:53:50;;;;;;;;;;;;;;;17.72;78.33;102398.09;5063393;28;20341;-59
2022/07/11 08:56:17;;;;;;;;;;;;;;;17.77;78.83;102401.13;5057481;28;19925;-60
2022/07/11 08:58:46;;;;;;;;;;;;;;;17.80;78.51;102400.75;5053902;28;19928;-60
2022/07/11 09:01:14;;;;;;;;;;;;;;;17.85;78.38;102398.41;5061265;28;19963;-59
2022/07/11 09:03:40;;;;;;;;;;;;;;;17.90;78.39;102394.38;5058284;28;19924;-59
2022/07/11 09:06:05;;;;;;;;;;;;;;;17.95;78.30;102392.03;5060769;28;19962;-58
2022/07/11 09:08:31;;;;;;;;;;;;;;;18.01;78.08;102391.31;5049155;28;19925;-59
2022/07/11 09:10:56;;;;;;;;;;;;;;;18.09;77.83;102382.41;5057456;28;19928;-60
2022/07/11 09:13:26;;;;;;;;;;;;;;;18.18;77.67;102385.91;5050835;28;19925;-58
2022/07/11 09:15:59;;;;;;;;;;;;;;;18.29;77.49;102385.50;5052053;28;19924;-60
2022/07/11 09:18:25;;;;;;;;;;;;;;;18.35;77.33;102384.00;5054240;28;19967;-61
2022/07/11 09:26:28;;;;;;;;;;;;;;;18.48;76.76;102380.72;5064224;28;19948;-59
2022/07/11 09:29:00;;;;;;;;;;;;;;;18.56;76.38;102378.00;5058067;28;19924;-59
2022/07/11 09:31:26;;;;;;;;;;;;;;;18.53;76.36;102381.03;5047699;28;20255;-60
2022/07/11 09:34:02;;;;;;;;;;;;;;;18.54;76.29;102374.63;5059010;28;19971;-59
2022/07/11 09:36:41;;;;;;;;;;;;;;;18.57;76.07;102385.03;5051805;28;19939;-60
2022/07/11 09:39:08;;;;;;;;;;;;;;;18.58;76.35;102384.03;5057660;28;19963;-59
2022/07/11 09:41:34;;;;;;;;;;;;;;;18.61;76.55;102391.75;5050391;28;20015;-60
2022/07/11 09:44:06;;;;;;;;;;;;;;;18.60;76.82;102378.47;5058746;28;20414;-61
2022/07/11 09:46:32;;;;;;;;;;;;;;;18.62;76.64;102388.03;5074013;28;19951;-59
2022/07/11 09:48:59;;;;;;;;;;;;;;;18.62;76.47;102379.97;5064505;28;19963;-58
2022/07/11 09:51:25;;;;;;;;;;;;;;;18.57;76.15;102378.81;5066784;28;19927;-59
2022/07/11 09:53:56;;;;;;;;;;;;;;;18.56;76.64;102383.38;5057167;28;19924;-59
2022/07/11 09:56:25;;;;;;;;;;;;;;;18.56;76.78;102378.00;5061660;28;20375;-62
2022/07/11 09:59:01;;;;;;;;;;;;;;;18.55;76.62;102376.31;5059779;28;19956;-60
2022/07/11 10:01:26;;;;;;;;;;;;;;;18.59;76.51;102385.69;5061157;28;19931;-59
2022/07/11 10:03:51;;;;;;;;;;;;;;;18.64;76.39;102377.09;5062169;28;20184;-59
2022/07/11 10:06:17;;;;;;;;;;;;;;;18.69;76.31;102383.63;5067901;28;20073;-61
2022/07/11 10:08:42;;;;;;;;;;;;;;;18.75;75.69;102378.56;5062095;28;20299;-59
2022/07/11 10:11:08;;;;;;;;;;;;;;;18.81;76.26;102385.91;5055563;28;20054;-60
2022/07/11 10:13:34;;;;;;;;;;;;;;;18.74;75.93;102382.25;5063364;28;20320;-60
2022/07/11 10:16:03;;;;;;;;;;;;;;;18.78;75.95;102386.25;5067741;28;19924;-59
2022/07/11 10:18:35;;;;;;;;;;;;;;;18.87;75.75;102387.88;5062330;28;20148;-59
2022/07/11 10:21:00;;;;;;;;;;;;;;;18.96;75.48;102381.41;5061380;28;19924;-61
2022/07/11 10:23:46;;;;;;;;;;;;;;;19.04;75.26;102377.03;5065481;28;19928;-61
2022/07/11 10:26:17;;;;;;;;;;;;;;;19.13;75.36;102384.00;5061582;28;19982;-60
2022/07/11 10:28:46;;;;;;;;;;;;;;;19.27;73.94;102390.44;5062039;28;19998;-59
2022/07/11 10:31:19;;;;;;;;;;;;;;;19.19;73.88;102394.03;5055868;28;20552;-60
2022/07/11 10:34:04;;;;;;;;;;;;;;;19.16;74.67;102394.41;5053602;28;19925;-59
2022/07/11 10:36:30;;;;;;;;;;;;;;;19.22;74.90;102396.34;5053863;28;19932;-59
2022/07/11 10:39:14;;;;;;;;;;;;;;;19.29;74.83;102398.31;5062178;28;19924;-61
2022/07/11 10:41:39;;;;;;;;;;;;;;;19.29;75.25;102393.75;5058761;28;19931;-61
2022/07/11 10:44:05;;;;;;;;;;;;;;;19.33;75.08;102399.59;5052819;28;19923;-60
2022/07/11 10:46:30;;;;;;;;;;;;;;;19.38;74.72;102394.53;5057424;28;19943;-62
2022/07/11 10:49:04;;;;;;;;;;;;;;;19.47;74.71;102396.13;5060410;28;19931;-60
2022/07/11 10:51:50;;;;;;;;;;;;;;;19.65;73.60;102397.63;5054508;28;20042;-59
2022/07/11 10:54:26;;;;;;;;;;;;;;;19.72;73.53;102397.72;5055913;28;19939;-59
2022/07/11 10:57:12;;;;;;;;;;;;;;;19.74;73.23;102404.59;5058548;28;19924;-62
2022/07/11 10:59:56;;;;;;;;;;;;;;;19.67;72.94;102395.59;5063088;28;20333;-59
2022/07/11 11:02:22;;;;;;;;;;;;;;;19.70;73.17;102397.94;5052578;28;19939;-60
2022/07/11 11:04:48;;;;;;;;;;;;;;;19.56;73.64;102398.72;5053572;28;19924;-62
2022/07/11 11:07:32;;;;;;;;;;;;;;;19.60;72.74;102400.03;5056180;28;19924;-62
2022/07/11 11:09:58;;;;;;;;;;;;;;;19.46;73.47;102399.84;5057616;28;19925;-61
2022/07/11 11:12:42;;;;;;;;;;;;;;;19.47;73.44;102401.50;5055214;28;19934;-60
2022/07/11 11:15:26;;;;;;;;;;;;;;;19.43;73.72;102400.19;5057211;28;20062;-59
2022/07/11 11:17:51;;;;;;;;;;;;;;;19.54;73.08;102400.78;5052721;28;19929;-60
2022/07/11 11:20:32;;;;;;;;;;;;;;;19.38;73.49;102407.16;5054598;28;19921;-61
2022/07/11 11:23:07;;;;;;;;;;;;;;;19.35;73.72;102403.78;5055610;28;19935;-59
2022/07/11 11:25:33;;;;;;;;;;;;;;;19.46;73.52;102410.59;5048721;28;19986;-60
2022/07/11 11:28:01;;;;;;;;;;;;;;;19.54;73.90;102406.16;5051860;28;19928;-61
2022/07/11 11:30:27;;;;;;;;;;;;;;;19.62;73.45;102406.06;5051780;28;20378;-61
2022/07/11 11:32:52;;;;;;;;;;;;;;;19.67;73.43;102406.34;5057130;28;20015;-60
2022/07/11 11:35:17;;;;;;;;;;;;;;;19.78;72.82;102407.75;5051945;28;19988;-60
2022/07/11 11:37:42;;;;;;;;;;;;;;;19.88;73.14;102402.06;5052833;28;19924;-59
2022/07/11 11:40:08;;;;;;;;;;;;;;;20.05;73.63;102399.22;5055586;28;19936;-60
2022/07/11 11:42:33;;;;;;;;;;;;;;;20.24;72.65;102403.22;5057662;28;19965;-61
2022/07/11 11:45:03;;;;;;;;;;;;;;;20.38;71.87;102396.94;5058444;28;19928;-60
2022/07/11 11:47:29;;;;;;;;;;;;;;;20.39;70.71;102395.09;5051108;28;20255;-60
2022/07/11 11:49:54;;;;;;;;;;;;;;;20.47;70.75;102399.56;5053288;28;19935;-62
2022/07/11 11:52:20;;;;;;;;;;;;;;;20.35;71.06;102401.88;5065799;28;20387;-61
2022/07/11 11:54:50;;;;;;;;;;;;;;;20.32;71.26;102405.78;5049072;28;19924;-60
2022/07/11 11:57:15;;;;;;;;;;;;;;;20.20;71.66;102405.44;5056763;28;20306;-62
2022/07/11 11:59:41;;;;;;;;;;;;;;;20.09;71.53;102395.16;5058533;28;20019;-61
2022/07/11 12:02:06;;;;;;;;;;;;;;;20.07;71.06;102394.50;5055562;28;19924;-60
2022/07/11 12:04:33;;;;;;;;;;;;;;;20.10;71.63;102389.59;5061734;28;19925;-59
2022/07/11 12:06:58;;;;;;;;;;;;;;;20.12;71.62;102390.22;5067823;28;20003;-60
2022/07/11 12:10:06;;;;;;;;;;;;;;;20.18;71.40;102393.19;5059540;28;20011;-59
2022/07/11 12:15:00;;;;;;;;;;;;;;;20.35;69.46;102397.34;5071364;28;20670;-59
2022/07/11 12:17:26;;;;;;;;;;;;;;;20.41;70.67;102396.59;5061216;28;19929;-59
2022/07/11 12:19:52;;;;;;;;;;;;;;;20.52;69.74;102397.13;5063853;28;19925;-60
2022/07/11 12:22:17;;;;;;;;;;;;;;;20.56;69.89;102399.25;5057489;28;20055;-59
2022/07/11 12:24:46;;;;;;;;;;;;;;;20.61;69.14;102392.44;5049836;28;20502;-59
2022/07/11 12:27:11;;;;;;;;;;;;;;;20.58;68.72;102395.50;5044651;28;20332;-59
2022/07/11 12:29:40;;;;;;;;;;;;;;;20.53;69.96;102388.81;5058720;28;19981;-59
2022/07/11 12:32:11;;;;;;;;;;;;;;;20.52;69.89;102389.03;5052857;28;19928;-58
2022/07/11 12:34:37;;;;;;;;;;;;;;;20.49;69.82;102381.31;5053777;28;20517;-60
2022/07/11 12:37:03;;;;;;;;;;;;;;;20.41;69.55;102384.97;5049424;28;19976;-61
2022/07/11 12:39:29;;;;;;;;;;;;;;;20.38;70.08;102386.16;5054301;28;20302;-59
2022/07/11 12:41:55;;;;;;;;;;;;;;;20.37;70.13;102383.69;5080338;28;19924;-60
2022/07/11 12:47:05;;;;;;;;;;;;;;;20.52;70.23;102378.25;5059924;28;19951;-60
2022/07/11 12:49:30;;;;;;;;;;;;;;;20.64;69.62;102373.19;5057647;28;20363;-59
2022/07/11 12:51:55;;;;;;;;;;;;;;;20.66;69.27;102376.50;5051545;28;19931;-61
2022/07/11 12:54:28;;;;;;;;;;;;;;;20.83;67.62;102377.94;5054938;28;19939;-58